sensor_id;sensor_type;location;lat;lon;timestamp;pressure;altitude;pressure_sealevel;temperature;humidity
86042;BME280;76639;53.064;18.818;2024-02-21T06:47:06;101613.31;;;7.44;78.05
86042;BME280;76639;53.064;18.818;2024-02-21T06:50:18;101611.27;;;7.55;77.82
86042;BME280;76639;53.064;18.818;2024-02-21T06:53:30;101601.21;;;7.65;77.51
86042;BME280;76639;53.064;18.818;2024-02-21T06:56:43;101593.16;;;7.73;77.25
86042;BME280;76639;53.064;18.818;2024-02-21T06:59:55;101600.58;;;7.81;77.04
86042;BME280;76639;53.064;18.818;2024-02-21T07:03:08;101596.52;;;7.85;76.94
86042;BME280;76639;53.064;18.818;2024-02-21T07:06:21;101578.78;;;7.91;76.84
86042;BME280;76639;53.064;18.818;2024-02-21T07:09:33;101587.32;;;7.96;76.68
86042;BME280;76639;53.064;18.818;2024-02-21T07:12:45;101578.50;;;7.94;76.61
86042;BME280;76639;53.064;18.818;2024-02-21T07:15:59;101589.03;;;7.97;76.56
86042;BME280;76639;53.064;18.818;2024-02-21T07:19:12;101582.45;;;7.99;76.65
86042;BME280;76639;53.064;18.818;2024-02-21T07:22:25;101572.29;;;8.01;76.58
86042;BME280;76639;53.064;18.818;2024-02-21T07:25:38;101576.72;;;8.02;76.49
86042;BME280;76639;53.064;18.818;2024-02-21T07:28:50;101568.09;;;8.07;76.40
86042;BME280;76639;53.064;18.818;2024-02-21T07:32:02;101566.23;;;8.07;76.45
86042;BME280;76639;53.064;18.818;2024-02-21T07:35:15;101555.91;;;8.11;76.36
86042;BME280;76639;53.064;18.818;2024-02-21T07:38:28;101557.48;;;8.13;76.33
86042;BME280;76639;53.064;18.818;2024-02-21T07:41:40;101551.00;;;8.14;76.27
86042;BME280;76639;53.064;18.818;2024-02-21T07:44:55;101540.84;;;8.17;76.19
86042;BME280;76639;53.064;18.818;2024-02-21T07:48:20;101535.97;;;8.20;76.14
86042;BME280;76639;53.064;18.818;2024-02-21T07:51:34;101533.61;;;8.25;76.05
86042;BME280;76639;53.064;18.818;2024-02-21T07:54:48;101537.89;;;8.28;76.00
86042;BME280;76639;53.064;18.818;2024-02-21T07:58:01;101534.86;;;8.31;75.96
86042;BME280;76639;53.064;18.818;2024-02-21T08:01:20;101527.12;;;8.36;75.98
86042;BME280;76639;53.064;18.818;2024-02-21T08:04:29;101520.52;;;8.38;76.00
86042;BME280;76639;53.064;18.818;2024-02-21T08:07:42;101521.07;;;8.42;75.88
86042;BME280;76639;53.064;18.818;2024-02-21T08:10:55;101526.18;;;8.45;75.84
86042;BME280;76639;53.064;18.818;2024-02-21T08:14:07;101528.89;;;8.45;75.85
86042;BME280;76639;53.064;18.818;2024-02-21T08:17:21;101526.88;;;8.47;75.81
86042;BME280;76639;53.064;18.818;2024-02-21T08:20:34;101530.29;;;8.49;75.71
86042;BME280;76639;53.064;18.818;2024-02-21T08:23:46;101529.28;;;8.50;75.64
86042;BME280;76639;53.064;18.818;2024-02-21T08:27:00;101518.41;;;8.50;75.59
86042;BME280;76639;53.064;18.818;2024-02-21T08:30:14;101512.66;;;8.53;75.55
86042;BME280;76639;53.064;18.818;2024-02-21T08:33:26;101511.11;;;8.51;75.53
86042;BME280;76639;53.064;18.818;2024-02-21T08:36:39;101510.26;;;8.50;75.53
86042;BME280;76639;53.064;18.818;2024-02-21T08:39:51;101507.90;;;8.55;75.59
86042;BME280;76639;53.064;18.818;2024-02-21T08:43:04;101501.30;;;8.58;75.65
86042;BME280;76639;53.064;18.818;2024-02-21T08:46:16;101498.11;;;8.62;75.57
86042;BME280;76639;53.064;18.818;2024-02-21T08:49:30;101494.05;;;8.66;75.44
86042;BME280;76639;53.064;18.818;2024-02-21T08:52:43;101495.75;;;8.67;75.42
86042;BME280;76639;53.064;18.818;2024-02-21T08:55:56;101489.16;;;8.70;75.27
86042;BME280;76639;53.064;18.818;2024-02-21T08:59:08;101489.85;;;8.72;75.11
86042;BME280;76639;53.064;18.818;2024-02-21T09:02:21;101485.27;;;8.72;75.10
86042;BME280;76639;53.064;18.818;2024-02-21T09:05:33;101481.53;;;8.73;75.08
86042;BME280;76639;53.064;18.818;2024-02-21T09:08:46;101479.48;;;8.75;75.11
86042;BME280;76639;53.064;18.818;2024-02-21T09:11:58;101475.09;;;8.74;75.10
86042;BME280;76639;53.064;18.818;2024-02-21T09:15:13;101469.66;;;8.74;75.14
86042;BME280;76639;53.064;18.818;2024-02-21T09:18:26;101470.16;;;8.78;75.23
86042;BME280;76639;53.064;18.818;2024-02-21T09:21:39;101471.87;;;8.79;75.29
86042;BME280;76639;53.064;18.818;2024-02-21T09:24:51;101467.12;;;8.81;75.25
86042;BME280;76639;53.064;18.818;2024-02-21T09:28:04;101470.55;;;8.83;75.26
86042;BME280;76639;53.064;18.818;2024-02-21T09:31:17;101473.11;;;8.84;75.26
86042;BME280;76639;53.064;18.818;2024-02-21T09:34:29;101479.55;;;8.83;75.31
86042;BME280;76639;53.064;18.818;2024-02-21T09:37:42;101479.21;;;8.86;75.30
86042;BME280;76639;53.064;18.818;2024-02-21T09:41:38;101477.50;;;8.85;75.34
86042;BME280;76639;53.064;18.818;2024-02-21T09:44:16;101474.12;;;8.83;75.40
86042;BME280;76639;53.064;18.818;2024-02-21T09:50:54;101483.60;;;8.79;75.44
86042;BME280;76639;53.064;18.818;2024-02-21T09:54:07;101474.74;;;8.77;75.60
86042;BME280;76639;53.064;18.818;2024-02-21T09:57:20;101477.46;;;8.77;75.67
86042;BME280;76639;53.064;18.818;2024-02-21T10:00:40;101471.55;;;8.82;75.68
86042;BME280;76639;53.064;18.818;2024-02-21T10:03:49;101438.91;;;8.82;75.79
86042;BME280;76639;53.064;18.818;2024-02-21T10:07:01;101460.37;;;8.85;75.81
86042;BME280;76639;53.064;18.818;2024-02-21T10:10:14;101461.88;;;8.88;75.79
86042;BME280;76639;53.064;18.818;2024-02-21T10:13:29;101446.57;;;8.86;75.75
86042;BME280;76639;53.064;18.818;2024-02-21T10:16:41;101449.99;;;8.89;75.68
86042;BME280;76639;53.064;18.818;2024-02-21T10:19:54;101446.09;;;8.91;75.66
86042;BME280;76639;53.064;18.818;2024-02-21T10:23:07;101447.97;;;8.91;75.61
86042;BME280;76639;53.064;18.818;2024-02-21T10:26:23;101440.50;;;8.93;75.59
86042;BME280;76639;53.064;18.818;2024-02-21T10:29:35;101442.88;;;8.96;75.56
86042;BME280;76639;53.064;18.818;2024-02-21T10:32:51;101434.71;;;8.96;75.52
86042;BME280;76639;53.064;18.818;2024-02-21T10:36:10;101431.98;;;8.96;75.49
86042;BME280;76639;53.064;18.818;2024-02-21T10:39:28;101430.12;;;8.96;75.47
86042;BME280;76639;53.064;18.818;2024-02-21T10:42:40;101418.23;;;8.97;75.40
86042;BME280;76639;53.064;18.818;2024-02-21T10:45:53;101412.95;;;8.96;75.51
86042;BME280;76639;53.064;18.818;2024-02-21T10:49:16;101418.06;;;8.99;75.50
86042;BME280;76639;53.064;18.818;2024-02-21T10:55:56;101403.45;;;9.00;75.53
86042;BME280;76639;53.064;18.818;2024-02-21T10:59:09;101406.16;;;9.00;75.57
86042;BME280;76639;53.064;18.818;2024-02-21T11:02:22;101409.75;;;9.00;75.56
86042;BME280;76639;53.064;18.818;2024-02-21T11:05:38;101399.72;;;9.01;75.62
86042;BME280;76639;53.064;18.818;2024-02-21T11:12:10;101400.73;;;9.00;75.72
86042;BME280;76639;53.064;18.818;2024-02-21T11:15:32;101393.58;;;8.99;75.86
86042;BME280;76639;53.064;18.818;2024-02-21T11:18:44;101378.27;;;8.98;75.97
86042;BME280;76639;53.064;18.818;2024-02-21T11:21:57;101374.54;;;8.99;76.01
86042;BME280;76639;53.064;18.818;2024-02-21T11:25:21;101372.83;;;8.98;76.12
86042;BME280;76639;53.064;18.818;2024-02-21T11:28:37;101359.92;;;9.00;76.10
86042;BME280;76639;53.064;18.818;2024-02-21T11:31:51;101355.01;;;9.03;76.16
86042;BME280;76639;53.064;18.818;2024-02-21T11:35:05;101344.63;;;9.07;76.12
86042;BME280;76639;53.064;18.818;2024-02-21T11:38:17;101332.89;;;9.06;76.16
86042;BME280;76639;53.064;18.818;2024-02-21T11:41:32;101348.04;;;9.09;76.17
86042;BME280;76639;53.064;18.818;2024-02-21T11:44:44;101338.86;;;9.10;76.26
86042;BME280;76639;53.064;18.818;2024-02-21T11:47:57;101345.33;;;9.09;76.14
86042;BME280;76639;53.064;18.818;2024-02-21T11:51:10;101327.13;;;9.09;76.16
86042;BME280;76639;53.064;18.818;2024-02-21T11:54:22;101328.83;;;9.10;76.20
86042;BME280;76639;53.064;18.818;2024-02-21T11:57:34;101316.92;;;9.11;76.24
86042;BME280;76639;53.064;18.818;2024-02-21T12:01:02;101317.27;;;9.16;76.20
86042;BME280;76639;53.064;18.818;2024-02-21T12:04:16;101321.20;;;9.22;76.14
86042;BME280;76639;53.064;18.818;2024-02-21T12:07:31;101318.81;;;9.27;76.15
86042;BME280;76639;53.064;18.818;2024-02-21T12:10:47;101317.80;;;9.28;76.08
86042;BME280;76639;53.064;18.818;2024-02-21T12:14:03;101310.16;;;9.32;75.98
86042;BME280;76639;53.064;18.818;2024-02-21T12:17:17;101298.74;;;9.28;75.92
86042;BME280;76639;53.064;18.818;2024-02-21T12:20:30;101305.56;;;9.32;75.91
86042;BME280;76639;53.064;18.818;2024-02-21T12:23:42;101309.84;;;9.35;75.78
86042;BME280;76639;53.064;18.818;2024-02-21T12:26:56;101283.45;;;9.35;75.79
86042;BME280;76639;53.064;18.818;2024-02-21T12:30:12;101272.56;;;9.35;75.75
86042;BME280;76639;53.064;18.818;2024-02-21T12:33:24;101285.82;;;9.38;75.57
86042;BME280;76639;53.064;18.818;2024-02-21T12:36:45;101284.48;;;9.42;75.63
86042;BME280;76639;53.064;18.818;2024-02-21T12:39:53;101274.27;;;9.44;75.64
86042;BME280;76639;53.064;18.818;2024-02-21T12:43:17;101281.91;;;9.49;75.57
86042;BME280;76639;53.064;18.818;2024-02-21T12:46:29;101263.54;;;9.51;75.43
86042;BME280;76639;53.064;18.818;2024-02-21T12:49:44;101263.38;;;9.52;75.27
86042;BME280;76639;53.064;18.818;2024-02-21T12:52:57;101266.09;;;9.52;75.23
86042;BME280;76639;53.064;18.818;2024-02-21T12:56:09;101265.07;;;9.53;75.10
86042;BME280;76639;53.064;18.818;2024-02-21T12:59:22;101272.22;;;9.54;75.12
86042;BME280;76639;53.064;18.818;2024-02-21T13:02:36;101265.94;;;9.54;75.09
86042;BME280;76639;53.064;18.818;2024-02-21T13:05:49;101268.48;;;9.55;75.04
86042;BME280;76639;53.064;18.818;2024-02-21T13:09:01;101277.16;;;9.51;75.06
86042;BME280;76639;53.064;18.818;2024-02-21T13:12:17;101277.16;;;9.51;74.90
86042;BME280;76639;53.064;18.818;2024-02-21T13:15:41;101259.96;;;9.50;74.83
86042;BME280;76639;53.064;18.818;2024-02-21T13:18:54;101260.48;;;9.54;74.86
86042;BME280;76639;53.064;18.818;2024-02-21T13:22:06;101280.56;;;9.53;74.88
86042;BME280;76639;53.064;18.818;2024-02-21T13:25:18;101253.34;;;9.53;74.86
86042;BME280;76639;53.064;18.818;2024-02-21T13:28:31;101254.51;;;9.50;74.95
86042;BME280;76639;53.064;18.818;2024-02-21T13:31:44;101251.27;;;9.47;75.06
86042;BME280;76639;53.064;18.818;2024-02-21T13:34:56;101253.99;;;9.47;75.10
86042;BME280;76639;53.064;18.818;2024-02-21T13:38:10;101245.83;;;9.47;75.17
86042;BME280;76639;53.064;18.818;2024-02-21T13:41:24;101259.45;;;9.47;75.16
86042;BME280;76639;53.064;18.818;2024-02-21T13:44:39;101241.44;;;9.46;75.17
86042;BME280;76639;53.064;18.818;2024-02-21T13:47:52;101240.38;;;9.47;75.20
86042;BME280;76639;53.064;18.818;2024-02-21T13:51:06;101235.98;;;9.46;75.34
86042;BME280;76639;53.064;18.818;2024-02-21T13:54:19;101232.58;;;9.44;75.36
86042;BME280;76639;53.064;18.818;2024-02-21T13:57:31;101222.54;;;9.44;75.46
86042;BME280;76639;53.064;18.818;2024-02-21T14:00:43;101225.60;;;9.41;75.65
86042;BME280;76639;53.064;18.818;2024-02-21T14:03:57;101223.55;;;9.43;75.70
86042;BME280;76639;53.064;18.818;2024-02-21T14:07:10;101208.76;;;9.46;75.70
86042;BME280;76639;53.064;18.818;2024-02-21T14:10:23;101210.64;;;9.45;75.76
86042;BME280;76639;53.064;18.818;2024-02-21T14:13:36;101206.21;;;9.44;75.84
86042;BME280;76639;53.064;18.818;2024-02-21T14:16:49;101186.98;;;9.46;75.85
86042;BME280;76639;53.064;18.818;2024-02-21T14:20:02;101205.36;;;9.44;75.98
86042;BME280;76639;53.064;18.818;2024-02-21T14:23:14;101197.02;;;9.45;75.93
86042;BME280;76639;53.064;18.818;2024-02-21T14:26:27;101209.61;;;9.46;75.93
86042;BME280;76639;53.064;18.818;2024-02-21T14:29:41;101191.58;;;9.45;75.96
86042;BME280;76639;53.064;18.818;2024-02-21T14:32:54;101201.62;;;9.45;75.94
86042;BME280;76639;53.064;18.818;2024-02-21T14:36:07;101201.44;;;9.46;75.98
86042;BME280;76639;53.064;18.818;2024-02-21T14:39:23;101202.47;;;9.45;76.06
86042;BME280;76639;53.064;18.818;2024-02-21T14:42:35;101189.02;;;9.44;76.12
86042;BME280;76639;53.064;18.818;2024-02-21T14:45:47;101183.58;;;9.44;76.16
86042;BME280;76639;53.064;18.818;2024-02-21T14:49:01;101190.21;;;9.41;76.32
86042;BME280;76639;53.064;18.818;2024-02-21T14:52:13;101181.88;;;9.43;76.38
86042;BME280;76639;53.064;18.818;2024-02-21T14:55:27;101183.20;;;9.47;76.38
86042;BME280;76639;53.064;18.818;2024-02-21T14:58:39;101188.48;;;9.48;76.39
86042;BME280;76639;53.064;18.818;2024-02-21T15:01:53;101182.38;;;9.46;76.35
86042;BME280;76639;53.064;18.818;2024-02-21T15:05:06;101158.91;;;9.45;76.29
86042;BME280;76639;53.064;18.818;2024-02-21T15:08:20;101167.55;;;9.49;76.22
86042;BME280;76639;53.064;18.818;2024-02-21T15:11:35;101161.09;;;9.50;76.14
86042;BME280;76639;53.064;18.818;2024-02-21T15:15:00;101165.35;;;9.52;76.05
86042;BME280;76639;53.064;18.818;2024-02-21T15:18:14;101173.83;;;9.57;75.96
86042;BME280;76639;53.064;18.818;2024-02-21T15:21:27;101166.72;;;9.56;75.84
86042;BME280;76639;53.064;18.818;2024-02-21T15:24:40;101158.88;;;9.53;75.82
86042;BME280;76639;53.064;18.818;2024-02-21T15:27:55;101161.44;;;9.55;75.73
86042;BME280;76639;53.064;18.818;2024-02-21T15:31:19;101148.84;;;9.54;75.82
86042;BME280;76639;53.064;18.818;2024-02-21T15:34:30;101154.45;;;9.52;75.79
86042;BME280;76639;53.064;18.818;2024-02-21T15:37:50;101151.05;;;9.50;75.79
86042;BME280;76639;53.064;18.818;2024-02-21T15:41:03;101152.58;;;9.53;75.76
86042;BME280;76639;53.064;18.818;2024-02-21T15:44:15;101151.05;;;9.50;75.78
86042;BME280;76639;53.064;18.818;2024-02-21T15:47:48;101142.88;;;9.50;75.73
86042;BME280;76639;53.064;18.818;2024-02-21T15:50:55;101150.02;;;9.51;75.69
86042;BME280;76639;53.064;18.818;2024-02-21T15:54:10;101145.59;;;9.50;75.63
86042;BME280;76639;53.064;18.818;2024-02-21T15:57:29;101148.66;;;9.47;75.64
86042;BME280;76639;53.064;18.818;2024-02-21T16:00:41;101129.98;;;9.44;75.67
86042;BME280;76639;53.064;18.818;2024-02-21T16:03:54;101143.42;;;9.46;75.58
86042;BME280;76639;53.064;18.818;2024-02-21T16:07:08;101138.83;;;9.46;75.50
86042;BME280;76639;53.064;18.818;2024-02-21T16:10:21;101129.80;;;9.46;75.37
86042;BME280;76639;53.064;18.818;2024-02-21T16:13:34;101130.82;;;9.45;75.33
86042;BME280;76639;53.064;18.818;2024-02-21T16:16:47;101138.30;;;9.43;75.36
86042;BME280;76639;53.064;18.818;2024-02-21T16:20:02;101136.27;;;9.45;75.37
86042;BME280;76639;53.064;18.818;2024-02-21T16:23:15;101139.84;;;9.45;75.34
86042;BME280;76639;53.064;18.818;2024-02-21T16:26:28;101125.55;;;9.43;75.35
86042;BME280;76639;53.064;18.818;2024-02-21T16:29:41;101131.33;;;9.40;75.44
86042;BME280;76639;53.064;18.818;2024-02-21T16:32:54;101124.01;;;9.41;75.40
86042;BME280;76639;53.064;18.818;2024-02-21T16:36:07;101136.09;;;9.38;75.38
86042;BME280;76639;53.064;18.818;2024-02-21T16:39:21;101129.31;;;9.34;75.30
86042;BME280;76639;53.064;18.818;2024-02-21T16:42:34;101134.75;;;9.34;75.18
86042;BME280;76639;53.064;18.818;2024-02-21T16:45:47;101139.16;;;9.27;75.23
86042;BME280;76639;53.064;18.818;2024-02-21T16:49:01;101131.55;;;9.22;75.19
86042;BME280;76639;53.064;18.818;2024-02-21T16:52:15;101139.36;;;9.17;75.32
86042;BME280;76639;53.064;18.818;2024-02-21T16:55:28;101127.30;;;9.12;75.46
86042;BME280;76639;53.064;18.818;2024-02-21T16:58:42;101140.22;;;9.10;75.56
86042;BME280;76639;53.064;18.818;2024-02-21T17:01:54;101138.69;;;9.07;75.62
86042;BME280;76639;53.064;18.818;2024-02-21T17:05:08;101131.54;;;9.06;75.68
86042;BME280;76639;53.064;18.818;2024-02-21T17:08:20;101145.34;;;9.05;75.83
86042;BME280;76639;53.064;18.818;2024-02-21T17:11:34;101134.95;;;9.08;75.96
86042;BME280;76639;53.064;18.818;2024-02-21T17:14:46;101142.42;;;9.06;76.02
86042;BME280;76639;53.064;18.818;2024-02-21T17:17:58;101133.24;;;9.07;75.93
86042;BME280;76639;53.064;18.818;2024-02-21T17:21:12;101135.79;;;9.09;75.92
86042;BME280;76639;53.064;18.818;2024-02-21T17:24:26;101134.78;;;9.10;75.93
86042;BME280;76639;53.064;18.818;2024-02-21T17:27:38;101131.89;;;9.11;75.93
86042;BME280;76639;53.064;18.818;2024-02-21T17:30:51;101128.16;;;9.12;75.95
86042;BME280;76639;53.064;18.818;2024-02-21T17:34:03;101132.91;;;9.10;76.04
86042;BME280;76639;53.064;18.818;2024-02-21T17:37:15;101127.30;;;9.12;76.00
86042;BME280;76639;53.064;18.818;2024-02-21T17:40:27;101114.38;;;9.14;75.96
86042;BME280;76639;53.064;18.818;2024-02-21T17:43:40;101113.16;;;9.16;75.94
86042;BME280;76639;53.064;18.818;2024-02-21T17:46:54;101109.42;;;9.17;75.89
86042;BME280;76639;53.064;18.818;2024-02-21T17:50:06;101102.11;;;9.18;75.79
86042;BME280;76639;53.064;18.818;2024-02-21T17:53:19;101102.79;;;9.20;75.79
86042;BME280;76639;53.064;18.818;2024-02-21T17:56:31;101107.38;;;9.19;75.70
86042;BME280;76639;53.064;18.818;2024-02-21T17:59:47;101106.20;;;9.22;75.61
86042;BME280;76639;53.064;18.818;2024-02-21T18:02:59;101103.48;;;9.22;75.61
86042;BME280;76639;53.064;18.818;2024-02-21T18:06:12;101106.36;;;9.20;75.61
86042;BME280;76639;53.064;18.818;2024-02-21T18:09:24;101107.21;;;9.21;75.58
86042;BME280;76639;53.064;18.818;2024-02-21T18:12:37;101096.33;;;9.21;75.53
86042;BME280;76639;53.064;18.818;2024-02-21T18:15:50;101092.76;;;9.20;75.53
86042;BME280;76639;53.064;18.818;2024-02-21T18:19:14;101095.48;;;9.20;75.42
86042;BME280;76639;53.064;18.818;2024-02-21T18:22:34;101083.23;;;9.16;75.48
86042;BME280;76639;53.064;18.818;2024-02-21T18:25:49;101083.23;;;9.16;75.44
86042;BME280;76639;53.064;18.818;2024-02-21T18:29:02;101077.62;;;9.18;75.33
86042;BME280;76639;53.064;18.818;2024-02-21T18:32:17;101072.34;;;9.16;75.37
86042;BME280;76639;53.064;18.818;2024-02-21T18:35:33;101080.34;;;9.18;75.29
86042;BME280;76639;53.064;18.818;2024-02-21T18:38:45;101082.03;;;9.19;75.18
86042;BME280;76639;53.064;18.818;2024-02-21T18:41:58;101073.39;;;9.15;75.19
86042;BME280;76639;53.064;18.818;2024-02-21T18:45:11;101076.28;;;9.14;75.21
86042;BME280;76639;53.064;18.818;2024-02-21T18:48:24;101076.97;;;9.16;75.12
86042;BME280;76639;53.064;18.818;2024-02-21T18:51:37;101074.23;;;9.16;75.13
86042;BME280;76639;53.064;18.818;2024-02-21T18:54:50;101075.92;;;9.17;75.05
86042;BME280;76639;53.064;18.818;2024-02-21T18:58:03;101078.47;;;9.18;74.99
86042;BME280;76639;53.064;18.818;2024-02-21T19:01:16;101077.78;;;9.16;74.96
86042;BME280;76639;53.064;18.818;2024-02-21T19:04:30;101073.03;;;9.18;74.74
86042;BME280;76639;53.064;18.818;2024-02-21T19:07:43;101074.73;;;9.19;74.82
86042;BME280;76639;53.064;18.818;2024-02-21T19:10:56;101079.31;;;9.19;74.85
86042;BME280;76639;53.064;18.818;2024-02-21T19:14:08;101067.75;;;9.17;74.80
86042;BME280;76639;53.064;18.818;2024-02-21T19:17:20;101072.01;;;9.19;74.73
86042;BME280;76639;53.064;18.818;2024-02-21T19:20:35;101065.70;;;9.19;74.63
86042;BME280;76639;53.064;18.818;2024-02-21T19:23:47;101078.47;;;9.18;74.54
86042;BME280;76639;53.064;18.818;2024-02-21T19:27:01;101077.44;;;9.19;74.40
86042;BME280;76639;53.064;18.818;2024-02-21T19:30:14;101072.17;;;9.18;74.45
86042;BME280;76639;53.064;18.818;2024-02-21T19:33:28;101069.45;;;9.18;74.42
86042;BME280;76639;53.064;18.818;2024-02-21T19:36:41;101069.12;;;9.21;74.34
86042;BME280;76639;53.064;18.818;2024-02-21T19:39:53;101069.28;;;9.19;74.33
86042;BME280;76639;53.064;18.818;2024-02-21T19:43:08;101056.02;;;9.16;74.34
86042;BME280;76639;53.064;18.818;2024-02-21T19:46:20;101069.28;;;9.19;74.27
86042;BME280;76639;53.064;18.818;2024-02-21T19:49:33;101070.30;;;9.18;74.28
86042;BME280;76639;53.064;18.818;2024-02-21T19:52:45;101052.09;;;9.19;74.27
86042;BME280;76639;53.064;18.818;2024-02-21T19:55:59;101051.93;;;9.20;74.20
86042;BME280;76639;53.064;18.818;2024-02-21T19:59:12;101042.75;;;9.21;74.19
86042;BME280;76639;53.064;18.818;2024-02-21T20:02:28;101045.63;;;9.20;74.12
86042;BME280;76639;53.064;18.818;2024-02-21T20:05:52;101043.59;;;9.22;74.13
86042;BME280;76639;53.064;18.818;2024-02-21T20:09:06;101038.16;;;9.22;74.05
86042;BME280;76639;53.064;18.818;2024-02-21T20:12:22;101041.90;;;9.21;74.10
86042;BME280;76639;53.064;18.818;2024-02-21T20:15:35;101031.69;;;9.23;74.04
86042;BME280;76639;53.064;18.818;2024-02-21T20:18:48;101033.40;;;9.24;73.90
86042;BME280;76639;53.064;18.818;2024-02-21T20:22:01;101037.98;;;9.23;73.91
86042;BME280;76639;53.064;18.818;2024-02-21T20:25:14;101028.97;;;9.23;73.83
86042;BME280;76639;53.064;18.818;2024-02-21T20:28:29;101024.38;;;9.23;73.74
86042;BME280;76639;53.064;18.818;2024-02-21T20:31:41;101028.80;;;9.25;73.79
86042;BME280;76639;53.064;18.818;2024-02-21T20:34:55;101016.05;;;9.25;73.72
86042;BME280;76639;53.064;18.818;2024-02-21T20:38:08;101017.74;;;9.26;73.70
